MSC Kleven — CQHU — position and weather

sailwx.info

Track history (hours):
 
Tides and Currents Weather Stations Pressure Air Temp Water Temp Dewpoint Dewpoint Depression Visibility Wind Speed Wind Dir Waves Ship Positions

MSC Kleven

Last reported at 2018-Jan-19 14:05 UTC. Time now 2018-Jan-23 08:06 UTC.
Position N 32°09' W 080°03'.

Length 318 m; draft 10 m.

Type: Ship (hazmat cat A). MMSI: 255805596.

Date/timePositionNaut miles runAvg speedWind from/ knotsBaromVisibWave heightAir tempDewpointWater temp
2018-Jan-19 14:05N 32°09' W 080°03'1 8.1
2018-Jan-19 14:00N 32°09' W 080°03'4 7.9
2018-Jan-19 13:27N 32°06' W 080°07'52 6.9
2018-Jan-19 05:56N 32°08' W 081°08'0 0.0
2018-Jan-19 05:29N 32°08' W 081°08'0 0.0
2018-Jan-19 04:59N 32°08' W 081°08'0 0.0
2018-Jan-19 04:29N 32°08' W 081°08'0 0.0
2018-Jan-19 03:59N 32°08' W 081°08'0 0.0
2018-Jan-19 03:29N 32°08' W 081°08'0 0.0
2018-Jan-19 02:59N 32°08' W 081°08'0 0.0
2018-Jan-19 02:29N 32°08' W 081°08'0 0.0
2018-Jan-19 01:59N 32°08' W 081°08'0 0.0
2018-Jan-19 01:29N 32°08' W 081°08'0 0.0
2018-Jan-19 00:59N 32°08' W 081°08'0 0.0
2018-Jan-19 00:29N 32°08' W 081°08'0 0.0
2018-Jan-18 23:59N 32°08' W 081°08'0 0.0
2018-Jan-18 23:29N 32°08' W 081°08'0 0.0
2018-Jan-18 22:59N 32°08' W 081°08'0 0.0
2018-Jan-18 21:11N 32°08' W 081°08'0 0.0
2018-Jan-18 20:59N 32°08' W 081°08'0 0.0
2018-Jan-18 20:29N 32°08' W 081°08'0 0.0
2018-Jan-18 19:59N 32°08' W 081°08'0 0.0
2018-Jan-18 19:29N 32°08' W 081°08'0 0.0
2018-Jan-18 18:59N 32°08' W 081°08'0 0.0
2018-Jan-18 18:29N 32°08' W 081°08'0 0.0
2018-Jan-18 17:59N 32°08' W 081°08'0 0.0
2018-Jan-18 17:29N 32°08' W 081°08'0 0.1
2018-Jan-18 17:00N 32°08' W 081°08'0 0.4
2018-Jan-18 16:31N 32°07' W 081°08'2 4.7
2018-Jan-18 16:00N 32°06' W 081°06'2 4.7
2018-Jan-18 15:30N 32°05' W 081°04'3 5.8
2018-Jan-18 15:00N 32°06' W 081°01'4 7.5
2018-Jan-18 14:31N 32°04' W 080°57'510.2
2018-Jan-18 14:01N 32°02' W 080°51'714.1
2018-Jan-18 13:31N 31°58' W 080°44'611.2
2018-Jan-18 13:00N 31°55' W 080°39'5 9.8
2018-Jan-18 12:30N 31°52' W 080°34'3 5.1
2018-Jan-18 12:00N 31°52' W 080°31'1 1.5
2018-Jan-18 11:30N 31°53' W 080°32'0 0.2
2018-Jan-18 10:59N 31°52' W 080°32'0 0.0
2018-Jan-18 10:29N 31°52' W 080°32'0 0.0
2018-Jan-18 09:59N 31°52' W 080°32'0 0.0
2018-Jan-18 09:29N 31°52' W 080°32'0 0.0
2018-Jan-18 08:59N 31°52' W 080°32'0 0.0
2018-Jan-18 07:50N 31°53' W 080°32'0 0.1
2018-Jan-18 07:23N 31°52' W 080°32'0 0.0
2018-Jan-18 06:47N 31°52' W 080°32'0 0.0
2018-Jan-18 06:26N 31°52' W 080°32'0 0.0
2018-Jan-18 05:56N 31°52' W 080°32'0 0.0
2018-Jan-18 05:26N 31°53' W 080°32'0 0.0
2018-Jan-18 04:56N 31°52' W 080°32'0 0.1
2018-Jan-18 04:29N 31°53' W 080°32'0 0.0
2018-Jan-18 03:05N 31°53' W 080°32'0 0.2
2018-Jan-18 02:59N 31°53' W 080°32'0 0.0
2018-Jan-18 02:26N 31°53' W 080°32'0 0.1
2018-Jan-18 01:53N 31°53' W 080°32'0 0.0
2018-Jan-18 01:29N 31°53' W 080°32'0 0.0
2018-Jan-18 00:56N 31°53' W 080°32'0 0.1
2018-Jan-17 23:59N 31°53' W 080°32'0 0.0
2018-Jan-17 23:38N 31°53' W 080°32'  
Track history (hours):
 
Tides and Currents Weather Stations Pressure Air Temp Water Temp Dewpoint Dewpoint Depression Visibility Wind Speed Wind Dir Waves Ship Positions

MSC Kleven

Last reported at 2018-Jan-19 14:05 UTC. Time now 2018-Jan-23 08:06 UTC.
Position N 32°09' W 080°03'.

Length 318 m; draft 10 m.

Type: Ship (hazmat cat A). MMSI: 255805596.

Date/timePositionNaut miles runAvg speedWind from/ knotsBaromVisibWave heightAir tempDewpointWater temp
2018-Jan-19 14:05N 32°09' W 080°03'1 8.1
2018-Jan-19 14:00N 32°09' W 080°03'4 7.9
2018-Jan-19 13:27N 32°06' W 080°07'52 6.9
2018-Jan-19 05:56N 32°08' W 081°08'0 0.0
2018-Jan-19 05:29N 32°08' W 081°08'0 0.0
2018-Jan-19 04:59N 32°08' W 081°08'0 0.0
2018-Jan-19 04:29N 32°08' W 081°08'0 0.0
2018-Jan-19 03:59N 32°08' W 081°08'0 0.0
2018-Jan-19 03:29N 32°08' W 081°08'0 0.0
2018-Jan-19 02:59N 32°08' W 081°08'0 0.0
2018-Jan-19 02:29N 32°08' W 081°08'0 0.0
2018-Jan-19 01:59N 32°08' W 081°08'0 0.0
2018-Jan-19 01:29N 32°08' W 081°08'0 0.0
2018-Jan-19 00:59N 32°08' W 081°08'0 0.0
2018-Jan-19 00:29N 32°08' W 081°08'0 0.0
2018-Jan-18 23:59N 32°08' W 081°08'0 0.0
2018-Jan-18 23:29N 32°08' W 081°08'0 0.0
2018-Jan-18 22:59N 32°08' W 081°08'0 0.0
2018-Jan-18 21:11N 32°08' W 081°08'0 0.0
2018-Jan-18 20:59N 32°08' W 081°08'0 0.0
2018-Jan-18 20:29N 32°08' W 081°08'0 0.0
2018-Jan-18 19:59N 32°08' W 081°08'0 0.0
2018-Jan-18 19:29N 32°08' W 081°08'0 0.0
2018-Jan-18 18:59N 32°08' W 081°08'0 0.0
2018-Jan-18 18:29N 32°08' W 081°08'0 0.0
2018-Jan-18 17:59N 32°08' W 081°08'0 0.0
2018-Jan-18 17:29N 32°08' W 081°08'0 0.1
2018-Jan-18 17:00N 32°08' W 081°08'0 0.4
2018-Jan-18 16:31N 32°07' W 081°08'2 4.7
2018-Jan-18 16:00N 32°06' W 081°06'2 4.7
2018-Jan-18 15:30N 32°05' W 081°04'3 5.8
2018-Jan-18 15:00N 32°06' W 081°01'4 7.5
2018-Jan-18 14:31N 32°04' W 080°57'510.2
2018-Jan-18 14:01N 32°02' W 080°51'714.1
2018-Jan-18 13:31N 31°58' W 080°44'611.2
2018-Jan-18 13:00N 31°55' W 080°39'5 9.8
2018-Jan-18 12:30N 31°52' W 080°34'3 5.1
2018-Jan-18 12:00N 31°52' W 080°31'1 1.5
2018-Jan-18 11:30N 31°53' W 080°32'0 0.2
2018-Jan-18 10:59N 31°52' W 080°32'0 0.0
2018-Jan-18 10:29N 31°52' W 080°32'0 0.0
2018-Jan-18 09:59N 31°52' W 080°32'0 0.0
2018-Jan-18 09:29N 31°52' W 080°32'0 0.0
2018-Jan-18 08:59N 31°52' W 080°32'0 0.0
2018-Jan-18 07:50N 31°53' W 080°32'0 0.1
2018-Jan-18 07:23N 31°52' W 080°32'0 0.0
2018-Jan-18 06:47N 31°52' W 080°32'0 0.0
2018-Jan-18 06:26N 31°52' W 080°32'0 0.0
2018-Jan-18 05:56N 31°52' W 080°32'0 0.0
2018-Jan-18 05:26N 31°53' W 080°32'0 0.0
2018-Jan-18 04:56N 31°52' W 080°32'0 0.1
2018-Jan-18 04:29N 31°53' W 080°32'0 0.0
2018-Jan-18 03:05N 31°53' W 080°32'0 0.2
2018-Jan-18 02:59N 31°53' W 080°32'0 0.0
2018-Jan-18 02:26N 31°53' W 080°32'0 0.1
2018-Jan-18 01:53N 31°53' W 080°32'0 0.0
2018-Jan-18 01:29N 31°53' W 080°32'0 0.0
2018-Jan-18 00:56N 31°53' W 080°32'0 0.1
2018-Jan-17 23:59N 31°53' W 080°32'0 0.0
2018-Jan-17 23:38N 31°53' W 080°32'  

Dump ship's entire track history